createdAt,value
2018-11-29T00:00:11.156Z,0.00
2018-11-29T00:01:11.390Z,0.00
2018-11-29T00:02:11.464Z,0.00
2018-11-29T00:03:11.648Z,0.00
2018-11-29T00:04:11.779Z,0.00
2018-11-29T00:05:12.024Z,0.00
2018-11-29T00:06:12.132Z,0.00
2018-11-29T00:07:12.194Z,0.00
2018-11-29T00:08:12.388Z,0.00
2018-11-29T00:09:12.575Z,0.00
2018-11-29T00:10:12.807Z,0.00
2018-11-29T00:11:12.886Z,0.00
2018-11-29T00:12:13.154Z,0.00
2018-11-29T00:13:13.244Z,0.00
2018-11-29T00:14:13.435Z,0.00
2018-11-29T00:15:13.632Z,0.00
2018-11-29T00:16:13.850Z,0.00
2018-11-29T00:17:14.013Z,0.00
2018-11-29T00:18:14.078Z,0.00
2018-11-29T00:19:14.293Z,0.00
2018-11-29T00:20:14.479Z,0.00
2018-11-29T00:21:14.672Z,0.00
2018-11-29T00:22:14.860Z,0.00
2018-11-29T00:23:15.109Z,0.00
2018-11-29T00:24:15.188Z,0.00
2018-11-29T00:25:15.379Z,0.00
2018-11-29T00:26:15.562Z,0.00
2018-11-29T00:27:15.823Z,0.00
2018-11-29T00:28:15.908Z,0.00
2018-11-29T00:29:16.119Z,0.00
2018-11-29T00:30:16.320Z,0.00
2018-11-29T00:31:16.523Z,0.00
2018-11-29T00:32:16.739Z,0.00
2018-11-29T00:33:16.981Z,0.00
2018-11-29T00:34:17.065Z,0.00
2018-11-29T00:35:17.262Z,0.00
2018-11-29T00:36:17.464Z,0.00
2018-11-29T00:37:17.644Z,0.00
2018-11-29T00:38:17.954Z,0.00
2018-11-29T00:39:17.999Z,0.00
2018-11-29T00:40:18.209Z,0.00
2018-11-29T00:41:18.275Z,0.00
2018-11-29T00:42:18.504Z,0.00
2018-11-29T00:43:18.670Z,0.00
2018-11-29T00:44:18.734Z,0.00
2018-11-29T00:45:18.935Z,0.00
2018-11-29T00:46:19.116Z,0.00
2018-11-29T00:47:19.324Z,0.00
2018-11-29T00:48:19.661Z,0.00
2018-11-29T00:49:19.635Z,0.00
2018-11-29T00:50:19.823Z,0.00
2018-11-29T00:51:20.110Z,0.00
2018-11-29T00:52:20.189Z,0.00
2018-11-29T00:53:20.408Z,0.00
2018-11-29T00:54:20.613Z,0.00
2018-11-29T00:55:20.803Z,0.00
2018-11-29T00:56:21.085Z,0.00
2018-11-29T00:57:21.148Z,0.00
2018-11-29T00:58:21.362Z,0.00
2018-11-29T00:59:21.473Z,0.00
2018-11-29T01:00:21.728Z,0.00
2018-11-29T01:01:21.818Z,0.00
2018-11-29T01:02:22.066Z,0.00
2018-11-29T01:03:22.179Z,0.00
2018-11-29T01:04:22.254Z,0.00
2018-11-29T01:05:22.448Z,0.00
2018-11-29T01:06:22.633Z,0.00
2018-11-29T01:07:23.001Z,0.00
2018-11-29T01:08:23.145Z,0.00
2018-11-29T01:09:23.299Z,0.00
2018-11-29T01:10:23.364Z,0.00
2018-11-29T01:11:23.667Z,0.00
2018-11-29T01:12:23.724Z,0.00
2018-11-29T01:13:23.946Z,0.00
2018-11-29T01:14:24.045Z,0.00
2018-11-29T01:15:24.145Z,0.00
2018-11-29T01:16:24.228Z,0.00
2018-11-29T01:17:24.443Z,0.00
2018-11-29T01:18:24.631Z,0.00
2018-11-29T01:19:24.734Z,0.00
2018-11-29T01:20:24.890Z,0.00
2018-11-29T01:21:24.993Z,0.00
2018-11-29T01:22:25.262Z,0.00
2018-11-29T01:23:25.335Z,0.00
2018-11-29T01:24:25.534Z,0.00
2018-11-29T01:25:25.734Z,0.00
2018-11-29T01:26:25.960Z,0.00
2018-11-29T01:27:26.045Z,0.00
2018-11-29T01:28:26.247Z,0.00
2018-11-29T01:29:26.446Z,0.00
2018-11-29T01:30:26.666Z,0.00
2018-11-29T01:31:26.753Z,0.00
2018-11-29T01:32:26.948Z,0.00
2018-11-29T01:33:27.147Z,0.00
2018-11-29T01:34:27.286Z,0.00
2018-11-29T01:35:27.369Z,0.00
2018-11-29T01:36:27.583Z,0.00
2018-11-29T01:37:27.846Z,0.00
2018-11-29T01:38:27.929Z,0.00
2018-11-29T01:39:28.112Z,0.00
2018-11-29T01:40:28.340Z,0.00
2018-11-29T01:41:28.425Z,0.00
2018-11-29T01:42:28.688Z,0.00
2018-11-29T01:43:28.811Z,0.00
2018-11-29T01:44:28.866Z,0.00
2018-11-29T01:45:29.034Z,0.00
2018-11-29T01:46:29.237Z,0.00
2018-11-29T01:47:29.511Z,0.00
2018-11-29T01:48:29.620Z,0.00
2018-11-29T01:49:29.703Z,0.00
2018-11-29T01:50:29.903Z,0.00
2018-11-29T01:51:30.088Z,0.00
2018-11-29T01:52:30.299Z,0.00
2018-11-29T01:53:30.590Z,0.00
2018-11-29T01:54:30.686Z,0.00
2018-11-29T01:55:30.760Z,0.00
2018-11-29T01:56:30.990Z,0.00
2018-11-29T01:57:31.066Z,0.00
2018-11-29T01:58:31.278Z,0.00
2018-11-29T01:59:31.506Z,0.00
2018-11-29T02:00:31.639Z,0.00
2018-11-29T02:01:31.720Z,0.00
2018-11-29T02:02:31.905Z,0.00
2018-11-29T02:03:32.103Z,0.00
2018-11-29T02:04:32.338Z,0.00
2018-11-29T02:05:32.551Z,0.00
2018-11-29T02:06:32.730Z,0.00
2018-11-29T02:07:32.963Z,0.00
2018-11-29T02:08:33.020Z,0.00
2018-11-29T02:09:33.242Z,0.00
2018-11-29T02:10:33.339Z,0.00
2018-11-29T02:11:33.586Z,0.00
2018-11-29T02:12:33.649Z,0.00
2018-11-29T02:13:33.890Z,0.00
2018-11-29T02:14:34.074Z,0.00
2018-11-29T02:15:34.304Z,0.00
2018-11-29T02:16:34.393Z,0.00
2018-11-29T02:17:34.489Z,0.00
2018-11-29T02:18:34.714Z,0.00
2018-11-29T02:19:34.775Z,0.00
2018-11-29T02:20:35.002Z,0.00
2018-11-29T02:21:35.217Z,0.00
2018-11-29T02:22:35.279Z,0.00
2018-11-29T02:23:35.512Z,0.00
2018-11-29T02:24:35.644Z,0.00
2018-11-29T02:25:35.837Z,0.00
2018-11-29T02:26:35.931Z,0.00
2018-11-29T02:27:36.151Z,0.00
2018-11-29T02:28:36.210Z,0.00
2018-11-29T02:29:36.417Z,0.00
2018-11-29T02:30:36.586Z,0.00
2018-11-29T02:31:36.776Z,0.00
2018-11-29T02:32:37.035Z,0.00
2018-11-29T02:33:37.088Z,0.00
2018-11-29T02:34:37.351Z,0.00
2018-11-29T02:35:37.432Z,0.00
2018-11-29T02:36:37.626Z,0.00
2018-11-29T02:37:37.818Z,0.00
2018-11-29T02:38:38.033Z,0.00
2018-11-29T02:39:38.224Z,0.00
2018-11-29T02:40:38.433Z,0.00
2018-11-29T02:41:38.538Z,0.00
2018-11-29T02:42:38.678Z,0.00
2018-11-29T02:43:38.728Z,0.00
2018-11-29T02:44:39.352Z,0.00
2018-11-29T02:45:39.140Z,0.00
2018-11-29T02:46:39.204Z,0.00
2018-11-29T02:47:39.437Z,0.00
2018-11-29T02:48:39.646Z,0.00
2018-11-29T02:49:39.837Z,0.00
2018-11-29T02:50:40.029Z,0.00
2018-11-29T02:51:40.215Z,0.00
2018-11-29T02:52:40.409Z,0.00
2018-11-29T02:53:40.633Z,0.00
2018-11-29T02:54:40.838Z,0.00
2018-11-29T02:55:41.038Z,0.00
2018-11-29T02:56:41.294Z,0.00
2018-11-29T02:57:41.425Z,0.00
2018-11-29T02:58:41.561Z,0.00
2018-11-29T02:59:41.665Z,0.00
2018-11-29T03:00:41.751Z,0.00
2018-11-29T03:01:41.965Z,0.00
2018-11-29T03:02:42.194Z,0.00
2018-11-29T03:03:42.308Z,0.00
2018-11-29T03:04:42.372Z,0.00
2018-11-29T03:05:42.551Z,0.00
2018-11-29T03:06:42.738Z,0.00
2018-11-29T03:07:42.924Z,0.00
2018-11-29T03:08:43.122Z,0.00
2018-11-29T03:09:43.267Z,0.00
2018-11-29T03:10:43.462Z,0.00
2018-11-29T03:11:43.531Z,0.00
2018-11-29T03:12:43.713Z,0.00
2018-11-29T03:13:43.922Z,0.00
2018-11-29T03:14:44.122Z,0.00
2018-11-29T03:15:44.325Z,0.00
2018-11-29T03:16:44.407Z,0.00
2018-11-29T03:17:44.616Z,0.00
2018-11-29T03:18:44.715Z,0.00
2018-11-29T03:19:44.934Z,0.00
2018-11-29T03:20:44.992Z,0.00
2018-11-29T03:21:45.172Z,0.00
2018-11-29T03:22:45.351Z,0.00
2018-11-29T03:23:45.704Z,0.00
2018-11-29T03:24:45.818Z,0.00
2018-11-29T03:25:45.883Z,0.00
2018-11-29T03:26:46.121Z,0.00
2018-11-29T03:27:46.180Z,0.00
2018-11-29T03:28:46.383Z,0.00
2018-11-29T03:29:46.657Z,0.00
2018-11-29T03:30:46.726Z,0.00
2018-11-29T03:31:46.937Z,0.00
2018-11-29T03:32:47.129Z,0.00
2018-11-29T03:33:47.311Z,0.00
2018-11-29T03:34:47.593Z,0.00
2018-11-29T03:35:47.655Z,0.00
2018-11-29T03:36:47.860Z,0.00
2018-11-29T03:37:48.046Z,0.00
2018-11-29T03:38:48.384Z,0.00
2018-11-29T03:39:48.458Z,0.00
2018-11-29T03:40:48.678Z,0.00
2018-11-29T03:41:48.898Z,0.00
2018-11-29T03:42:48.985Z,0.00
2018-11-29T03:43:49.223Z,0.00
2018-11-29T03:44:49.298Z,0.00
2018-11-29T03:45:49.543Z,0.00
2018-11-29T03:46:49.661Z,0.00
2018-11-29T03:47:49.764Z,0.00
2018-11-29T03:48:49.853Z,0.00
2018-11-29T03:49:50.052Z,0.00
2018-11-29T03:50:50.268Z,0.00
2018-11-29T03:51:50.455Z,0.00
2018-11-29T03:52:50.653Z,0.00
2018-11-29T03:53:50.878Z,0.00
2018-11-29T03:54:51.142Z,0.00
2018-11-29T03:55:51.238Z,0.00
2018-11-29T03:56:51.357Z,0.00
2018-11-29T03:57:51.418Z,0.00
2018-11-29T03:58:51.625Z,0.00
2018-11-29T03:59:51.835Z,0.00
2018-11-29T04:00:52.033Z,0.00
2018-11-29T04:01:52.214Z,0.00
2018-11-29T04:02:52.410Z,0.00
2018-11-29T04:03:52.592Z,0.00
2018-11-29T04:04:52.790Z,0.00
2018-11-29T04:05:52.976Z,0.00
2018-11-29T04:06:53.158Z,0.00
2018-11-29T04:07:53.450Z,0.00
2018-11-29T04:08:53.561Z,0.00
2018-11-29T04:09:53.717Z,0.00
2018-11-29T04:10:53.833Z,0.00
2018-11-29T04:11:53.890Z,0.00
2018-11-29T04:12:54.031Z,0.00
2018-11-29T04:13:54.106Z,0.00
2018-11-29T04:14:54.371Z,0.00
2018-11-29T04:15:54.430Z,0.00
2018-11-29T04:16:54.697Z,0.00
2018-11-29T04:17:54.862Z,0.00
2018-11-29T04:18:54.954Z,0.00
2018-11-29T04:19:55.047Z,0.00
2018-11-29T04:20:55.247Z,0.00
2018-11-29T04:21:55.349Z,0.00
2018-11-29T04:22:55.546Z,0.00
2018-11-29T04:23:55.768Z,0.00
2018-11-29T04:24:55.969Z,0.00
2018-11-29T04:25:56.179Z,0.00
2018-11-29T04:26:56.367Z,0.00
2018-11-29T04:27:56.564Z,0.00
2018-11-29T04:28:56.817Z,0.00
2018-11-29T04:29:56.881Z,0.00
2018-11-29T04:31:00.200Z,0.00
2018-11-29T04:31:59.228Z,0.00
2018-11-29T04:33:01.335Z,0.00
2018-11-29T04:34:00.709Z,0.00
2018-11-29T04:35:01.821Z,0.00
2018-11-29T04:35:57.879Z,0.00
2018-11-29T04:36:58.700Z,0.00
2018-11-29T04:37:58.260Z,0.00
2018-11-29T04:38:58.478Z,0.00
2018-11-29T04:39:58.710Z,0.00
2018-11-29T04:40:58.771Z,0.00
2018-11-29T04:41:58.957Z,0.00
2018-11-29T04:42:59.190Z,0.00
2018-11-29T04:43:59.264Z,0.00
2018-11-29T04:44:59.484Z,0.00
2018-11-29T04:45:59.679Z,0.00
2018-11-29T04:46:59.879Z,0.00
2018-11-29T04:48:00.123Z,0.00
2018-11-29T04:49:00.202Z,0.00
2018-11-29T04:50:00.406Z,0.00
2018-11-29T04:51:00.554Z,0.00
2018-11-29T04:52:00.626Z,0.00
2018-11-29T04:53:00.844Z,0.00
2018-11-29T04:54:00.904Z,0.00
2018-11-29T04:55:01.132Z,0.00
2018-11-29T04:56:01.317Z,0.00
2018-11-29T04:57:01.526Z,0.00
2018-11-29T04:58:01.738Z,0.00
2018-11-29T04:59:01.845Z,0.00
2018-11-29T05:00:02.089Z,0.00
2018-11-29T05:01:02.196Z,0.00
2018-11-29T05:02:02.303Z,0.00
2018-11-29T05:03:02.533Z,0.00
2018-11-29T05:04:02.517Z,0.00
2018-11-29T05:05:02.601Z,0.00
2018-11-29T05:06:02.877Z,0.00
2018-11-29T05:07:02.988Z,0.00
2018-11-29T05:08:03.921Z,0.00
2018-11-29T05:09:03.790Z,0.00
2018-11-29T05:10:03.370Z,0.00
2018-11-29T05:11:03.599Z,0.00
2018-11-29T05:12:03.686Z,0.00
2018-11-29T05:13:04.226Z,0.00
2018-11-29T05:14:04.068Z,0.00
2018-11-29T05:15:04.258Z,0.00
2018-11-29T05:16:04.482Z,0.00
2018-11-29T05:17:04.598Z,0.00
2018-11-29T05:18:04.725Z,0.00
2018-11-29T05:19:04.863Z,0.00
2018-11-29T05:20:04.982Z,0.00
2018-11-29T05:21:05.058Z,0.00
2018-11-29T05:22:05.388Z,0.00
2018-11-29T05:23:05.558Z,0.00
2018-11-29T05:24:05.719Z,0.00
2018-11-29T05:25:05.826Z,0.00
2018-11-29T05:26:05.914Z,0.00
2018-11-29T05:27:06.056Z,0.00
2018-11-29T05:28:06.294Z,0.00
2018-11-29T05:29:06.416Z,0.00
2018-11-29T05:30:06.564Z,0.00
2018-11-29T05:31:06.693Z,0.00
2018-11-29T05:32:06.921Z,0.00
2018-11-29T05:33:07.085Z,0.00
2018-11-29T05:34:07.248Z,0.00
2018-11-29T05:35:07.415Z,0.00
2018-11-29T05:36:07.570Z,0.00
2018-11-29T05:37:07.666Z,0.00
2018-11-29T05:38:07.724Z,0.00
2018-11-29T05:39:08.141Z,0.00
2018-11-29T05:40:08.063Z,0.00
2018-11-29T05:41:08.289Z,0.00
2018-11-29T05:42:08.407Z,0.00
2018-11-29T05:43:08.641Z,0.00
2018-11-29T05:44:08.598Z,0.00
2018-11-29T05:45:08.830Z,0.00
2018-11-29T05:46:08.905Z,0.00
2018-11-29T05:47:09.182Z,0.00
2018-11-29T05:48:09.266Z,0.00
2018-11-29T05:49:09.345Z,0.00
2018-11-29T05:50:09.641Z,0.00
2018-11-29T05:51:09.946Z,0.00
2018-11-29T05:52:09.932Z,0.00
2018-11-29T05:53:10.051Z,0.00
2018-11-29T05:54:10.097Z,0.00
2018-11-29T05:55:10.293Z,0.00
2018-11-29T05:56:10.509Z,0.00
2018-11-29T05:57:10.715Z,0.00
2018-11-29T05:58:10.917Z,0.00
2018-11-29T05:59:11.236Z,0.00
2018-11-29T06:00:11.704Z,0.00
2018-11-29T06:01:11.504Z,0.00
2018-11-29T06:02:11.735Z,0.00
2018-11-29T06:03:11.896Z,0.00
2018-11-29T06:04:11.922Z,0.00
2018-11-29T06:05:12.167Z,0.00
2018-11-29T06:06:12.258Z,0.00
2018-11-29T06:07:12.469Z,0.00
2018-11-29T06:08:12.756Z,0.00
2018-11-29T06:09:12.820Z,0.00
2018-11-29T06:10:12.901Z,0.00
2018-11-29T06:11:13.175Z,0.00
2018-11-29T06:12:13.264Z,0.00
2018-11-29T06:13:14.389Z,0.00
2018-11-29T06:14:13.900Z,0.00
2018-11-29T06:15:13.800Z,0.00
2018-11-29T06:16:13.879Z,0.00
2018-11-29T06:17:13.997Z,0.00
2018-11-29T06:18:14.121Z,0.00
2018-11-29T06:19:14.302Z,0.00
2018-11-29T06:20:14.386Z,0.00
2018-11-29T06:21:14.634Z,0.00
2018-11-29T06:22:15.394Z,0.00
2018-11-29T06:23:15.444Z,0.00
2018-11-29T06:27:29.111Z,0.00
2018-11-29T06:28:07.793Z,0.00
2018-11-29T06:29:14.391Z,0.00
2018-11-29T06:30:09.022Z,0.00
2018-11-29T06:31:08.425Z,0.00
2018-11-29T06:32:08.460Z,0.00
2018-11-29T06:33:07.274Z,0.00
2018-11-29T06:34:07.425Z,0.00
2018-11-29T06:35:07.363Z,0.00
2018-11-29T06:36:08.339Z,0.00
2018-11-29T06:37:06.811Z,0.00
2018-11-29T06:38:09.920Z,0.00
2018-11-29T06:41:20.898Z,0.00
2018-11-29T06:41:44.357Z,0.00
2018-11-29T06:42:43.363Z,0.00
2018-11-29T06:43:41.640Z,0.00
2018-11-29T06:44:42.830Z,0.00
2018-11-29T06:45:42.680Z,0.00
2018-11-29T06:47:02.586Z,0.00
2018-11-29T06:47:42.212Z,0.00
2018-11-29T06:48:47.368Z,0.00
2018-11-29T06:49:51.213Z,0.00
2018-11-29T06:50:46.246Z,0.00
2018-11-29T06:51:41.982Z,0.00
2018-11-29T06:52:42.348Z,0.00
2018-11-29T06:53:42.318Z,0.00
2018-11-29T06:54:42.608Z,0.00
2018-11-29T06:55:42.711Z,0.00
2018-11-29T06:56:42.953Z,0.00
2018-11-29T06:57:43.112Z,0.00
2018-11-29T06:58:44.050Z,0.00
2018-11-29T06:59:43.418Z,0.00
2018-11-29T07:00:43.730Z,0.00
2018-11-29T07:01:43.718Z,0.00
2018-11-29T07:02:43.932Z,0.00
2018-11-29T07:03:44.107Z,0.00
2018-11-29T07:04:44.175Z,0.00
2018-11-29T07:05:44.422Z,0.00
2018-11-29T07:06:44.557Z,0.00
2018-11-29T07:07:44.794Z,0.00
2018-11-29T07:08:44.820Z,0.00
2018-11-29T07:09:44.924Z,0.00
2018-11-29T07:10:45.177Z,0.00
2018-11-29T07:11:45.168Z,0.00
2018-11-29T07:12:45.292Z,0.00
2018-11-29T07:13:45.477Z,0.00
2018-11-29T07:14:45.627Z,0.00
2018-11-29T07:15:45.788Z,0.00
2018-11-29T07:16:48.444Z,0.00
2018-11-29T07:17:46.269Z,5.63
2018-11-29T07:18:46.448Z,5.63
2018-11-29T07:19:46.535Z,5.63
2018-11-29T07:20:46.716Z,5.63
2018-11-29T07:21:46.930Z,5.63
2018-11-29T07:22:47.046Z,5.63
2018-11-29T07:23:47.207Z,5.63
2018-11-29T07:24:47.440Z,5.63
2018-11-29T07:25:47.527Z,5.63
2018-11-29T07:26:47.680Z,5.63
2018-11-29T07:27:47.752Z,5.63
2018-11-29T07:28:47.836Z,5.63
2018-11-29T07:29:48.057Z,5.63
2018-11-29T07:30:48.158Z,5.63
2018-11-29T07:31:48.370Z,5.63
2018-11-29T07:32:48.577Z,5.63
2018-11-29T07:33:48.763Z,5.63
2018-11-29T07:34:48.968Z,5.63
2018-11-29T07:35:49.086Z,5.63
2018-11-29T07:36:49.290Z,11.25
2018-11-29T07:37:49.502Z,5.63
2018-11-29T07:38:49.691Z,5.63
2018-11-29T07:39:49.875Z,11.25
2018-11-29T07:40:50.123Z,11.25
2018-11-29T07:41:50.194Z,11.25
2018-11-29T07:42:50.264Z,11.25
2018-11-29T07:43:50.540Z,11.25
2018-11-29T07:44:50.726Z,11.25
2018-11-29T07:45:50.782Z,11.25
2018-11-29T07:46:50.888Z,16.88
2018-11-29T07:47:51.090Z,16.88
2018-11-29T07:48:51.353Z,16.88
2018-11-29T07:49:51.326Z,16.88
2018-11-29T07:50:51.499Z,16.88
2018-11-29T07:51:51.713Z,16.88
2018-11-29T07:52:53.220Z,22.50
2018-11-29T07:53:52.081Z,22.50
2018-11-29T07:54:52.078Z,16.88
2018-11-29T07:55:52.165Z,16.88
2018-11-29T07:56:52.380Z,16.88
2018-11-29T07:57:52.499Z,16.88
2018-11-29T07:58:53.131Z,22.50
2018-11-29T07:59:52.927Z,22.50
2018-11-29T08:00:52.913Z,22.50
2018-11-29T08:01:53.041Z,22.50
2018-11-29T08:02:53.203Z,22.50
2018-11-29T08:03:53.371Z,22.50
2018-11-29T08:04:53.538Z,22.50
2018-11-29T08:05:53.779Z,22.50
2018-11-29T08:06:53.920Z,22.50
2018-11-29T08:07:54.039Z,22.50
2018-11-29T08:08:54.232Z,22.50
2018-11-29T08:09:54.298Z,22.50
2018-11-29T08:10:54.542Z,22.50
2018-11-29T08:11:54.799Z,22.50
2018-11-29T08:12:54.883Z,28.13
2018-11-29T08:13:55.026Z,28.13
2018-11-29T08:14:55.132Z,28.13
2018-11-29T08:15:55.233Z,28.13
2018-11-29T08:16:55.483Z,28.13
2018-11-29T08:17:55.661Z,33.75
2018-11-29T08:18:56.350Z,33.75
2018-11-29T08:19:57.869Z,28.13
2018-11-29T08:20:57.743Z,28.13
2018-11-29T08:21:57.137Z,28.13
2018-11-29T08:22:56.836Z,28.13
2018-11-29T08:23:57.220Z,28.13
2018-11-29T08:25:00.045Z,28.13
2018-11-29T08:26:01.084Z,22.50
2018-11-29T08:27:01.466Z,22.50
2018-11-29T08:28:00.988Z,22.50
2018-11-29T08:28:58.220Z,28.13
2018-11-29T08:29:59.202Z,28.13
2018-11-29T08:31:00.165Z,28.13
2018-11-29T08:31:58.765Z,28.13
2018-11-29T08:33:01.080Z,28.13
2018-11-29T08:34:00.230Z,28.13
2018-11-29T08:35:00.097Z,28.13
2018-11-29T08:35:58.751Z,28.13
2018-11-29T08:36:58.726Z,33.75
2018-11-29T08:38:00.397Z,33.75
2018-11-29T08:38:59.139Z,33.75
2018-11-29T08:39:59.339Z,39.38
2018-11-29T08:40:59.799Z,39.38
2018-11-29T08:41:59.461Z,39.38
2018-11-29T08:42:59.732Z,45.00
2018-11-29T08:43:59.312Z,45.00
2018-11-29T08:44:59.749Z,45.00
2018-11-29T08:46:02.634Z,45.00
2018-11-29T08:47:01.255Z,45.00
2018-11-29T08:48:02.214Z,45.00
2018-11-29T08:49:00.604Z,45.00
2018-11-29T08:50:00.639Z,45.00
2018-11-29T08:51:02.165Z,50.63
2018-11-29T08:52:01.893Z,50.63
2018-11-29T08:53:01.739Z,45.00
2018-11-29T08:54:02.514Z,50.63
2018-11-29T08:55:01.713Z,50.63
2018-11-29T08:56:01.127Z,56.25
2018-11-29T08:57:01.359Z,61.88
2018-11-29T08:58:01.414Z,61.88
2018-11-29T08:59:01.552Z,61.88
2018-11-29T09:00:01.673Z,67.50
2018-11-29T09:01:01.864Z,67.50
2018-11-29T09:02:02.064Z,61.88
2018-11-29T09:03:02.315Z,67.50
2018-11-29T09:04:02.298Z,73.13
2018-11-29T09:05:02.435Z,95.63
2018-11-29T09:06:02.548Z,106.88
2018-11-29T09:07:02.710Z,90.00
2018-11-29T09:08:03.249Z,90.00
2018-11-29T09:09:04.230Z,90.00
2018-11-29T09:10:03.978Z,84.38
2018-11-29T09:11:05.522Z,95.63
2018-11-29T09:12:05.188Z,101.25
2018-11-29T09:13:03.705Z,95.63
2018-11-29T09:14:05.277Z,95.63
2018-11-29T09:15:04.823Z,118.13
2018-11-29T09:16:05.331Z,140.63
2018-11-29T09:17:04.352Z,168.75
2018-11-29T09:18:05.060Z,151.88
2018-11-29T09:19:05.658Z,140.63
2018-11-29T09:20:05.028Z,140.63
2018-11-29T09:21:06.321Z,135.00
2018-11-29T09:22:05.241Z,129.38
2018-11-29T09:23:05.623Z,135.00
2018-11-29T09:24:06.939Z,135.00
2018-11-29T09:25:05.704Z,140.63
2018-11-29T09:26:07.074Z,146.25
2018-11-29T09:27:07.571Z,151.88
2018-11-29T09:28:06.556Z,146.25
2018-11-29T09:29:06.919Z,146.25
2018-11-29T09:30:06.470Z,146.25
2018-11-29T09:31:07.193Z,151.88
2018-11-29T09:32:09.773Z,157.50
2018-11-29T09:33:11.210Z,163.13
2018-11-29T09:34:08.800Z,157.50
2018-11-29T09:35:08.678Z,151.88
2018-11-29T09:36:08.727Z,151.88
2018-11-29T09:37:08.699Z,157.50
2018-11-29T09:38:08.550Z,168.75
2018-11-29T09:39:08.637Z,174.38
2018-11-29T09:40:09.588Z,163.13
2018-11-29T09:41:09.214Z,135.00
2018-11-29T09:42:09.293Z,135.00
2018-11-29T09:43:12.867Z,129.38
2018-11-29T09:44:09.569Z,140.63
2018-11-29T09:45:10.102Z,146.25
2018-11-29T09:46:10.709Z,157.50
2018-11-29T09:47:10.042Z,163.13
2018-11-29T09:48:10.430Z,157.50
2018-11-29T09:49:11.051Z,163.13
2018-11-29T09:50:12.042Z,163.13
2018-11-29T09:51:13.326Z,163.13
2018-11-29T09:52:11.314Z,168.75
2018-11-29T09:53:10.105Z,180.00
2018-11-29T09:54:10.942Z,180.00
2018-11-29T09:55:13.765Z,180.00
2018-11-29T09:56:12.118Z,163.13
2018-11-29T09:57:11.380Z,168.75
2018-11-29T09:58:11.274Z,180.00
2018-11-29T09:59:11.020Z,185.63
2018-11-29T10:00:11.312Z,191.25
2018-11-29T10:01:12.810Z,191.25
2018-11-29T10:02:11.585Z,191.25
2018-11-29T10:03:13.498Z,191.25
2018-11-29T10:04:14.316Z,191.25
2018-11-29T10:05:12.436Z,191.25
2018-11-29T10:06:12.987Z,157.50
2018-11-29T10:07:12.642Z,140.63
2018-11-29T10:08:12.543Z,135.00
2018-11-29T10:09:14.978Z,129.38
2018-11-29T10:10:14.090Z,129.38
2018-11-29T10:11:13.736Z,129.38
2018-11-29T10:12:13.315Z,129.38
2018-11-29T10:13:15.171Z,129.38
2018-11-29T10:14:15.047Z,129.38
2018-11-29T10:15:15.735Z,129.38
2018-11-29T10:16:14.006Z,129.38
2018-11-29T10:17:15.469Z,135.00
2018-11-29T10:18:14.396Z,129.38
2018-11-29T10:19:14.558Z,129.38
2018-11-29T10:20:14.785Z,135.00
2018-11-29T10:21:14.957Z,135.00
2018-11-29T10:22:15.157Z,135.00
2018-11-29T10:23:15.282Z,129.38
2018-11-29T10:24:15.499Z,129.38
2018-11-29T10:25:15.672Z,129.38
2018-11-29T10:26:15.846Z,129.38
2018-11-29T10:27:16.043Z,129.38
2018-11-29T10:28:16.240Z,129.38
2018-11-29T10:29:16.400Z,140.63
2018-11-29T10:30:16.621Z,146.25
2018-11-29T10:31:16.722Z,140.63
2018-11-29T10:32:17.229Z,146.25
2018-11-29T10:33:17.031Z,151.88
2018-11-29T10:34:17.387Z,146.25
2018-11-29T10:35:17.358Z,151.88
2018-11-29T10:36:17.843Z,157.50
2018-11-29T10:37:17.953Z,157.50
2018-11-29T10:38:18.524Z,151.88
2018-11-29T10:39:18.127Z,151.88
2018-11-29T10:40:18.266Z,157.50
2018-11-29T10:41:18.742Z,163.13
2018-11-29T10:42:19.092Z,157.50
2018-11-29T10:43:19.481Z,151.88
2018-11-29T10:44:19.361Z,151.88
2018-11-29T10:45:19.499Z,151.88
2018-11-29T10:46:19.490Z,157.50
2018-11-29T10:47:19.980Z,157.50
2018-11-29T10:48:19.766Z,157.50
2018-11-29T10:49:19.942Z,157.50
2018-11-29T10:50:20.186Z,157.50
2018-11-29T10:51:20.425Z,163.13
2018-11-29T10:52:20.379Z,163.13
2018-11-29T10:53:20.825Z,163.13
2018-11-29T10:54:20.919Z,168.75
2018-11-29T10:55:20.903Z,168.75
2018-11-29T10:56:22.680Z,168.75
2018-11-29T10:57:21.486Z,174.38
2018-11-29T10:58:21.431Z,174.38
2018-11-29T10:59:21.946Z,174.38
2018-11-29T11:00:21.918Z,168.75
2018-11-29T11:01:21.860Z,163.13
2018-11-29T11:02:22.061Z,157.50
2018-11-29T11:03:22.372Z,157.50
2018-11-29T11:04:22.508Z,157.50
2018-11-29T11:05:22.530Z,157.50
2018-11-29T11:06:23.233Z,157.50
2018-11-29T11:07:23.007Z,157.50
2018-11-29T11:08:23.278Z,157.50
2018-11-29T11:09:23.413Z,157.50
2018-11-29T11:10:23.759Z,157.50
2018-11-29T11:11:24.346Z,157.50
2018-11-29T11:12:24.810Z,157.50
2018-11-29T11:13:24.112Z,163.13
2018-11-29T11:14:24.175Z,168.75
2018-11-29T11:15:24.510Z,168.75
2018-11-29T11:16:24.720Z,157.50
2018-11-29T11:17:25.051Z,157.50
2018-11-29T11:18:24.887Z,157.50
2018-11-29T11:19:24.697Z,168.75
2018-11-29T11:20:24.873Z,185.63
2018-11-29T11:21:25.062Z,191.25
2018-11-29T11:22:25.251Z,196.88
2018-11-29T11:23:25.409Z,208.13
2018-11-29T11:24:25.569Z,213.75
2018-11-29T11:25:25.740Z,208.13
2018-11-29T11:26:25.908Z,208.13
2018-11-29T11:27:26.068Z,208.13
2018-11-29T11:28:26.235Z,202.50
2018-11-29T11:29:26.405Z,202.50
2018-11-29T11:30:26.575Z,208.13
2018-11-29T11:31:31.063Z,196.88
2018-11-29T11:32:27.015Z,191.25
2018-11-29T11:33:27.611Z,174.38
2018-11-29T11:34:27.337Z,163.13
2018-11-29T11:35:27.511Z,157.50
2018-11-29T11:36:27.764Z,151.88
2018-11-29T11:37:27.867Z,146.25
2018-11-29T11:38:28.062Z,140.63
2018-11-29T11:39:28.264Z,135.00
2018-11-29T11:40:28.452Z,135.00
2018-11-29T11:41:28.641Z,129.38
2018-11-29T11:42:28.807Z,129.38
2018-11-29T11:43:28.981Z,135.00
2018-11-29T11:44:29.175Z,151.88
2018-11-29T11:45:30.352Z,157.50
2018-11-29T11:46:29.524Z,157.50
2018-11-29T11:47:31.160Z,135.00
2018-11-29T11:48:29.911Z,135.00
2018-11-29T11:49:30.121Z,129.38
2018-11-29T11:50:30.288Z,135.00
2018-11-29T11:51:30.500Z,163.13
2018-11-29T11:52:30.660Z,129.38
2018-11-29T11:53:34.493Z,123.75
2018-11-29T11:54:30.949Z,129.38
2018-11-29T11:55:31.293Z,129.38
2018-11-29T11:56:31.279Z,118.13
2018-11-29T11:57:31.443Z,112.50
2018-11-29T11:58:31.624Z,106.88
2018-11-29T11:59:31.776Z,106.88
2018-11-29T12:00:33.642Z,101.25
2018-11-29T12:01:32.101Z,101.25
2018-11-29T12:02:32.309Z,95.63
2018-11-29T12:03:32.439Z,95.63
2018-11-29T12:04:32.619Z,90.00
2018-11-29T12:05:32.802Z,90.00
2018-11-29T12:06:33.044Z,84.38
2018-11-29T12:07:33.228Z,84.38
2018-11-29T12:08:33.334Z,78.75
2018-11-29T12:09:34.106Z,78.75
2018-11-29T12:10:33.702Z,78.75
2018-11-29T12:11:33.707Z,78.75
2018-11-29T12:12:33.910Z,78.75
2018-11-29T12:13:34.179Z,73.13
2018-11-29T12:14:34.155Z,73.13
2018-11-29T12:15:34.199Z,73.13
2018-11-29T12:16:34.430Z,67.50
2018-11-29T12:17:34.725Z,67.50
2018-11-29T12:18:34.947Z,67.50
2018-11-29T12:19:34.918Z,67.50
2018-11-29T12:20:35.639Z,67.50
2018-11-29T12:21:35.731Z,67.50
2018-11-29T12:22:35.418Z,67.50
2018-11-29T12:23:35.569Z,67.50
2018-11-29T12:24:35.764Z,67.50
2018-11-29T12:25:36.706Z,61.88
2018-11-29T12:26:36.723Z,61.88
2018-11-29T12:27:37.109Z,61.88
2018-11-29T12:28:38.269Z,61.88
2018-11-29T12:29:37.020Z,61.88
2018-11-29T12:30:36.881Z,61.88
2018-11-29T12:31:36.922Z,61.88
2018-11-29T12:32:37.580Z,67.50
2018-11-29T12:33:37.255Z,67.50
2018-11-29T12:34:37.498Z,67.50
2018-11-29T12:35:37.608Z,67.50
2018-11-29T12:36:37.777Z,67.50
2018-11-29T12:37:37.979Z,67.50
2018-11-29T12:38:38.462Z,67.50
2018-11-29T12:39:38.755Z,67.50
2018-11-29T12:40:38.596Z,67.50
2018-11-29T12:41:38.623Z,67.50
2018-11-29T12:42:39.079Z,67.50
2018-11-29T12:43:39.160Z,67.50
2018-11-29T12:44:39.550Z,67.50
2018-11-29T12:45:39.312Z,67.50
2018-11-29T12:46:39.856Z,67.50
2018-11-29T12:47:39.678Z,67.50
2018-11-29T12:48:39.813Z,67.50
2018-11-29T12:49:39.981Z,67.50
2018-11-29T12:50:40.145Z,61.88
2018-11-29T12:51:40.476Z,61.88
2018-11-29T12:52:40.602Z,67.50
2018-11-29T12:53:40.731Z,67.50
2018-11-29T12:54:40.790Z,67.50
2018-11-29T12:55:40.959Z,67.50
2018-11-29T12:56:41.128Z,67.50
2018-11-29T12:57:42.189Z,67.50
2018-11-29T12:58:41.753Z,67.50
2018-11-29T12:59:41.626Z,67.50
2018-11-29T13:00:41.788Z,67.50
2018-11-29T13:01:41.949Z,67.50
2018-11-29T13:02:42.126Z,67.50
2018-11-29T13:03:42.395Z,61.88
2018-11-29T13:04:42.477Z,61.88
2018-11-29T13:05:42.647Z,61.88
2018-11-29T13:06:42.837Z,61.88
2018-11-29T13:07:43.426Z,56.25